sensor_id;sensor_type;location;lat;lon;timestamp;P1;durP1;ratioP1;P2;durP2;ratioP2
21480;SDS011;10902;48.158;8.634;2023-04-25T00:02:20;9.60;;;3.35;;
21480;SDS011;10902;48.158;8.634;2023-04-25T00:04:46;7.10;;;3.33;;
21480;SDS011;10902;48.158;8.634;2023-04-25T00:07:13;8.45;;;3.58;;
21480;SDS011;10902;48.158;8.634;2023-04-25T00:09:39;8.63;;;3.67;;
21480;SDS011;10902;48.158;8.634;2023-04-25T00:12:04;7.13;;;3.45;;
21480;SDS011;10902;48.158;8.634;2023-04-25T00:14:30;8.23;;;3.58;;
21480;SDS011;10902;48.158;8.634;2023-04-25T00:16:59;7.90;;;3.70;;
21480;SDS011;10902;48.158;8.634;2023-04-25T00:19:25;9.10;;;3.65;;
21480;SDS011;10902;48.158;8.634;2023-04-25T00:21:53;6.15;;;3.33;;
21480;SDS011;10902;48.158;8.634;2023-04-25T00:24:22;7.43;;;3.40;;
21480;SDS011;10902;48.158;8.634;2023-04-25T00:26:48;6.13;;;3.42;;
21480;SDS011;10902;48.158;8.634;2023-04-25T00:29:13;7.07;;;3.88;;
21480;SDS011;10902;48.158;8.634;2023-04-25T00:31:39;9.07;;;4.00;;
21480;SDS011;10902;48.158;8.634;2023-04-25T00:34:05;7.82;;;3.80;;
21480;SDS011;10902;48.158;8.634;2023-04-25T00:36:32;6.20;;;3.42;;
21480;SDS011;10902;48.158;8.634;2023-04-25T00:38:57;7.28;;;3.45;;
21480;SDS011;10902;48.158;8.634;2023-04-25T00:41:23;7.68;;;4.22;;
21480;SDS011;10902;48.158;8.634;2023-04-25T00:43:51;8.60;;;4.00;;
21480;SDS011;10902;48.158;8.634;2023-04-25T00:46:18;11.68;;;4.30;;
21480;SDS011;10902;48.158;8.634;2023-04-25T00:48:44;9.02;;;4.15;;
21480;SDS011;10902;48.158;8.634;2023-04-25T00:51:09;9.02;;;4.25;;
21480;SDS011;10902;48.158;8.634;2023-04-25T00:53:40;9.10;;;4.40;;
21480;SDS011;10902;48.158;8.634;2023-04-25T00:56:06;7.30;;;4.10;;
21480;SDS011;10902;48.158;8.634;2023-04-25T00:58:32;9.32;;;4.80;;
21480;SDS011;10902;48.158;8.634;2023-04-25T01:00:58;7.38;;;4.28;;
21480;SDS011;10902;48.158;8.634;2023-04-25T01:03:24;11.25;;;4.70;;
21480;SDS011;10902;48.158;8.634;2023-04-25T01:05:51;10.90;;;4.15;;
21480;SDS011;10902;48.158;8.634;2023-04-25T01:08:17;6.63;;;4.05;;
21480;SDS011;10902;48.158;8.634;2023-04-25T01:10:42;6.22;;;3.50;;
21480;SDS011;10902;48.158;8.634;2023-04-25T01:13:08;8.98;;;4.45;;
21480;SDS011;10902;48.158;8.634;2023-04-25T01:15:33;6.97;;;3.40;;
21480;SDS011;10902;48.158;8.634;2023-04-25T01:18:01;8.43;;;3.70;;
21480;SDS011;10902;48.158;8.634;2023-04-25T01:20:26;8.20;;;3.95;;
21480;SDS011;10902;48.158;8.634;2023-04-25T01:22:53;9.50;;;4.40;;
21480;SDS011;10902;48.158;8.634;2023-04-25T01:25:20;8.32;;;4.40;;
21480;SDS011;10902;48.158;8.634;2023-04-25T01:27:47;9.70;;;4.78;;
21480;SDS011;10902;48.158;8.634;2023-04-25T01:30:13;9.15;;;5.00;;
21480;SDS011;10902;48.158;8.634;2023-04-25T01:32:38;9.73;;;5.38;;
21480;SDS011;10902;48.158;8.634;2023-04-25T01:35:07;10.90;;;5.90;;
21480;SDS011;10902;48.158;8.634;2023-04-25T01:37:38;10.38;;;5.72;;
21480;SDS011;10902;48.158;8.634;2023-04-25T01:40:05;11.50;;;5.80;;
21480;SDS011;10902;48.158;8.634;2023-04-25T01:42:32;9.07;;;5.10;;
21480;SDS011;10902;48.158;8.634;2023-04-25T01:44:59;11.73;;;5.25;;
21480;SDS011;10902;48.158;8.634;2023-04-25T01:47:25;10.40;;;5.00;;
21480;SDS011;10902;48.158;8.634;2023-04-25T01:49:50;9.65;;;5.30;;
21480;SDS011;10902;48.158;8.634;2023-04-25T01:52:16;10.75;;;5.28;;
21480;SDS011;10902;48.158;8.634;2023-04-25T01:54:42;9.50;;;4.93;;
21480;SDS011;10902;48.158;8.634;2023-04-25T01:57:10;7.22;;;4.55;;
21480;SDS011;10902;48.158;8.634;2023-04-25T01:59:36;8.68;;;4.60;;
21480;SDS011;10902;48.158;8.634;2023-04-25T02:02:02;8.63;;;4.68;;
21480;SDS011;10902;48.158;8.634;2023-04-25T02:04:29;8.75;;;4.57;;
21480;SDS011;10902;48.158;8.634;2023-04-25T02:06:55;9.88;;;5.55;;
21480;SDS011;10902;48.158;8.634;2023-04-25T02:09:20;9.57;;;4.70;;
21480;SDS011;10902;48.158;8.634;2023-04-25T02:11:46;7.93;;;5.10;;
21480;SDS011;10902;48.158;8.634;2023-04-25T02:14:12;9.35;;;5.13;;
21480;SDS011;10902;48.158;8.634;2023-04-25T02:16:38;9.30;;;5.03;;
21480;SDS011;10902;48.158;8.634;2023-04-25T02:19:04;10.48;;;5.50;;
21480;SDS011;10902;48.158;8.634;2023-04-25T02:21:30;12.10;;;5.53;;
21480;SDS011;10902;48.158;8.634;2023-04-25T02:23:56;8.38;;;4.53;;
21480;SDS011;10902;48.158;8.634;2023-04-25T02:26:22;8.82;;;4.70;;
21480;SDS011;10902;48.158;8.634;2023-04-25T02:28:49;9.57;;;4.60;;
21480;SDS011;10902;48.158;8.634;2023-04-25T02:31:15;9.93;;;5.30;;
21480;SDS011;10902;48.158;8.634;2023-04-25T02:33:41;9.30;;;5.32;;
21480;SDS011;10902;48.158;8.634;2023-04-25T02:36:07;9.52;;;5.32;;
21480;SDS011;10902;48.158;8.634;2023-04-25T02:38:32;10.25;;;5.43;;
21480;SDS011;10902;48.158;8.634;2023-04-25T02:40:59;15.10;;;6.50;;
21480;SDS011;10902;48.158;8.634;2023-04-25T02:43:25;14.10;;;6.72;;
21480;SDS011;10902;48.158;8.634;2023-04-25T02:45:51;8.65;;;5.75;;
21480;SDS011;10902;48.158;8.634;2023-04-25T02:48:16;11.13;;;5.90;;
21480;SDS011;10902;48.158;8.634;2023-04-25T02:50:42;10.68;;;6.25;;
21480;SDS011;10902;48.158;8.634;2023-04-25T02:53:07;11.55;;;6.18;;
21480;SDS011;10902;48.158;8.634;2023-04-25T02:55:33;15.80;;;6.63;;
21480;SDS011;10902;48.158;8.634;2023-04-25T02:57:59;11.25;;;6.68;;
21480;SDS011;10902;48.158;8.634;2023-04-25T03:00:25;11.13;;;6.40;;
21480;SDS011;10902;48.158;8.634;2023-04-25T03:02:50;12.45;;;6.43;;
21480;SDS011;10902;48.158;8.634;2023-04-25T03:05:16;9.98;;;6.40;;
21480;SDS011;10902;48.158;8.634;2023-04-25T03:07:42;14.45;;;6.93;;
21480;SDS011;10902;48.158;8.634;2023-04-25T03:10:09;13.13;;;7.35;;
21480;SDS011;10902;48.158;8.634;2023-04-25T03:12:35;11.90;;;6.30;;
21480;SDS011;10902;48.158;8.634;2023-04-25T03:15:01;10.95;;;6.40;;
21480;SDS011;10902;48.158;8.634;2023-04-25T03:17:27;11.90;;;6.50;;
21480;SDS011;10902;48.158;8.634;2023-04-25T03:19:52;14.77;;;7.57;;
21480;SDS011;10902;48.158;8.634;2023-04-25T03:22:18;13.23;;;6.75;;
21480;SDS011;10902;48.158;8.634;2023-04-25T03:24:43;10.45;;;6.90;;
21480;SDS011;10902;48.158;8.634;2023-04-25T03:27:09;10.32;;;6.50;;
21480;SDS011;10902;48.158;8.634;2023-04-25T03:29:35;12.73;;;8.07;;
21480;SDS011;10902;48.158;8.634;2023-04-25T03:32:00;15.77;;;7.10;;
21480;SDS011;10902;48.158;8.634;2023-04-25T03:34:26;13.23;;;6.90;;
21480;SDS011;10902;48.158;8.634;2023-04-25T03:36:51;12.98;;;7.15;;
21480;SDS011;10902;48.158;8.634;2023-04-25T03:39:17;18.33;;;7.05;;
21480;SDS011;10902;48.158;8.634;2023-04-25T03:41:42;16.17;;;7.93;;
21480;SDS011;10902;48.158;8.634;2023-04-25T03:44:08;14.13;;;8.02;;
21480;SDS011;10902;48.158;8.634;2023-04-25T03:46:34;16.92;;;8.18;;
21480;SDS011;10902;48.158;8.634;2023-04-25T03:48:59;15.32;;;7.75;;
21480;SDS011;10902;48.158;8.634;2023-04-25T03:51:25;17.33;;;8.52;;
21480;SDS011;10902;48.158;8.634;2023-04-25T03:53:51;13.30;;;7.75;;
21480;SDS011;10902;48.158;8.634;2023-04-25T03:56:17;16.58;;;9.63;;
21480;SDS011;10902;48.158;8.634;2023-04-25T03:58:43;16.33;;;8.27;;
21480;SDS011;10902;48.158;8.634;2023-04-25T04:01:08;12.10;;;7.63;;
21480;SDS011;10902;48.158;8.634;2023-04-25T04:03:34;19.25;;;8.75;;
21480;SDS011;10902;48.158;8.634;2023-04-25T04:06:01;13.82;;;7.97;;
21480;SDS011;10902;48.158;8.634;2023-04-25T04:08:30;13.50;;;7.18;;
21480;SDS011;10902;48.158;8.634;2023-04-25T04:10:57;15.60;;;8.40;;
21480;SDS011;10902;48.158;8.634;2023-04-25T04:13:25;15.73;;;8.20;;
21480;SDS011;10902;48.158;8.634;2023-04-25T04:15:51;18.42;;;8.30;;
21480;SDS011;10902;48.158;8.634;2023-04-25T04:18:17;12.73;;;8.02;;
21480;SDS011;10902;48.158;8.634;2023-04-25T04:20:43;16.60;;;9.30;;
21480;SDS011;10902;48.158;8.634;2023-04-25T04:23:08;14.05;;;8.45;;
21480;SDS011;10902;48.158;8.634;2023-04-25T04:25:34;16.20;;;8.25;;
21480;SDS011;10902;48.158;8.634;2023-04-25T04:28:00;16.38;;;8.68;;
21480;SDS011;10902;48.158;8.634;2023-04-25T04:30:26;14.60;;;8.75;;
21480;SDS011;10902;48.158;8.634;2023-04-25T04:32:56;12.93;;;8.35;;
21480;SDS011;10902;48.158;8.634;2023-04-25T04:35:22;14.07;;;8.80;;
21480;SDS011;10902;48.158;8.634;2023-04-25T04:37:48;14.40;;;8.30;;
21480;SDS011;10902;48.158;8.634;2023-04-25T04:40:14;13.52;;;7.72;;
21480;SDS011;10902;48.158;8.634;2023-04-25T04:42:41;15.43;;;8.75;;
21480;SDS011;10902;48.158;8.634;2023-04-25T04:45:07;13.32;;;8.48;;
21480;SDS011;10902;48.158;8.634;2023-04-25T04:47:33;15.45;;;8.35;;
21480;SDS011;10902;48.158;8.634;2023-04-25T04:49:59;13.93;;;8.13;;
21480;SDS011;10902;48.158;8.634;2023-04-25T04:52:24;12.98;;;7.80;;
21480;SDS011;10902;48.158;8.634;2023-04-25T04:54:50;15.15;;;7.90;;
21480;SDS011;10902;48.158;8.634;2023-04-25T04:57:15;11.90;;;7.75;;
21480;SDS011;10902;48.158;8.634;2023-04-25T04:59:44;14.52;;;7.93;;
21480;SDS011;10902;48.158;8.634;2023-04-25T05:02:09;13.65;;;7.82;;
21480;SDS011;10902;48.158;8.634;2023-04-25T05:04:35;15.23;;;7.63;;
21480;SDS011;10902;48.158;8.634;2023-04-25T05:07:01;11.30;;;6.65;;
21480;SDS011;10902;48.158;8.634;2023-04-25T05:09:26;11.75;;;7.28;;
21480;SDS011;10902;48.158;8.634;2023-04-25T05:11:52;11.43;;;7.03;;
21480;SDS011;10902;48.158;8.634;2023-04-25T05:14:17;11.88;;;7.28;;
21480;SDS011;10902;48.158;8.634;2023-04-25T05:16:43;12.05;;;6.97;;
21480;SDS011;10902;48.158;8.634;2023-04-25T05:19:09;13.13;;;7.32;;
21480;SDS011;10902;48.158;8.634;2023-04-25T05:21:35;13.25;;;7.82;;
21480;SDS011;10902;48.158;8.634;2023-04-25T05:24:00;12.88;;;7.57;;
21480;SDS011;10902;48.158;8.634;2023-04-25T05:26:26;11.75;;;7.40;;
21480;SDS011;10902;48.158;8.634;2023-04-25T05:28:56;11.68;;;7.43;;
21480;SDS011;10902;48.158;8.634;2023-04-25T05:31:25;13.20;;;7.45;;
21480;SDS011;10902;48.158;8.634;2023-04-25T05:33:51;12.77;;;7.78;;
21480;SDS011;10902;48.158;8.634;2023-04-25T05:36:18;12.48;;;7.38;;
21480;SDS011;10902;48.158;8.634;2023-04-25T05:38:43;12.88;;;7.22;;
21480;SDS011;10902;48.158;8.634;2023-04-25T05:41:09;12.35;;;7.63;;
21480;SDS011;10902;48.158;8.634;2023-04-25T05:43:35;12.25;;;6.70;;
21480;SDS011;10902;48.158;8.634;2023-04-25T05:46:00;12.15;;;7.00;;
21480;SDS011;10902;48.158;8.634;2023-04-25T05:48:26;10.32;;;6.82;;
21480;SDS011;10902;48.158;8.634;2023-04-25T05:50:51;12.27;;;7.43;;
21480;SDS011;10902;48.158;8.634;2023-04-25T05:53:18;12.82;;;7.45;;
21480;SDS011;10902;48.158;8.634;2023-04-25T05:55:44;10.57;;;6.38;;
21480;SDS011;10902;48.158;8.634;2023-04-25T05:58:10;9.55;;;6.28;;
21480;SDS011;10902;48.158;8.634;2023-04-25T06:00:35;21.33;;;7.65;;
21480;SDS011;10902;48.158;8.634;2023-04-25T06:03:01;10.18;;;6.35;;
21480;SDS011;10902;48.158;8.634;2023-04-25T06:05:27;11.02;;;6.25;;
21480;SDS011;10902;48.158;8.634;2023-04-25T06:07:52;11.27;;;6.65;;
21480;SDS011;10902;48.158;8.634;2023-04-25T06:10:18;10.32;;;6.10;;
21480;SDS011;10902;48.158;8.634;2023-04-25T06:12:43;10.60;;;6.70;;
21480;SDS011;10902;48.158;8.634;2023-04-25T06:15:09;12.70;;;7.30;;
21480;SDS011;10902;48.158;8.634;2023-04-25T06:17:35;13.00;;;7.68;;
21480;SDS011;10902;48.158;8.634;2023-04-25T06:20:01;13.13;;;7.47;;
21480;SDS011;10902;48.158;8.634;2023-04-25T06:22:28;11.48;;;6.95;;
21480;SDS011;10902;48.158;8.634;2023-04-25T06:24:54;10.50;;;6.95;;
21480;SDS011;10902;48.158;8.634;2023-04-25T06:27:22;12.75;;;6.80;;
21480;SDS011;10902;48.158;8.634;2023-04-25T06:29:47;11.95;;;7.25;;
21480;SDS011;10902;48.158;8.634;2023-04-25T06:32:13;11.13;;;7.18;;
21480;SDS011;10902;48.158;8.634;2023-04-25T06:34:39;14.30;;;7.88;;
21480;SDS011;10902;48.158;8.634;2023-04-25T06:37:04;16.20;;;8.18;;
21480;SDS011;10902;48.158;8.634;2023-04-25T06:39:30;15.55;;;7.45;;
21480;SDS011;10902;48.158;8.634;2023-04-25T06:41:56;14.32;;;7.60;;
21480;SDS011;10902;48.158;8.634;2023-04-25T06:44:21;10.93;;;6.88;;
21480;SDS011;10902;48.158;8.634;2023-04-25T06:46:48;13.20;;;6.57;;
21480;SDS011;10902;48.158;8.634;2023-04-25T06:49:14;14.30;;;7.18;;
21480;SDS011;10902;48.158;8.634;2023-04-25T06:51:40;13.25;;;7.63;;
21480;SDS011;10902;48.158;8.634;2023-04-25T06:54:06;15.55;;;7.70;;
21480;SDS011;10902;48.158;8.634;2023-04-25T06:56:31;12.32;;;6.95;;
21480;SDS011;10902;48.158;8.634;2023-04-25T06:58:57;10.88;;;6.30;;
21480;SDS011;10902;48.158;8.634;2023-04-25T07:01:23;13.13;;;6.85;;
21480;SDS011;10902;48.158;8.634;2023-04-25T07:03:49;13.13;;;7.07;;
21480;SDS011;10902;48.158;8.634;2023-04-25T07:06:14;12.30;;;7.07;;
21480;SDS011;10902;48.158;8.634;2023-04-25T07:08:40;11.50;;;7.05;;
21480;SDS011;10902;48.158;8.634;2023-04-25T07:11:06;10.73;;;7.13;;
21480;SDS011;10902;48.158;8.634;2023-04-25T07:13:31;14.40;;;8.20;;
21480;SDS011;10902;48.158;8.634;2023-04-25T07:15:57;10.15;;;7.47;;
21480;SDS011;10902;48.158;8.634;2023-04-25T07:18:23;11.10;;;6.80;;
21480;SDS011;10902;48.158;8.634;2023-04-25T07:20:48;12.23;;;6.13;;
21480;SDS011;10902;48.158;8.634;2023-04-25T07:23:14;10.10;;;5.78;;
21480;SDS011;10902;48.158;8.634;2023-04-25T07:25:39;8.20;;;5.43;;
21480;SDS011;10902;48.158;8.634;2023-04-25T07:28:07;10.00;;;4.65;;
21480;SDS011;10902;48.158;8.634;2023-04-25T07:30:33;8.90;;;5.20;;
21480;SDS011;10902;48.158;8.634;2023-04-25T07:32:59;11.02;;;5.90;;
21480;SDS011;10902;48.158;8.634;2023-04-25T07:35:25;9.98;;;5.10;;
21480;SDS011;10902;48.158;8.634;2023-04-25T07:37:51;10.15;;;5.65;;
21480;SDS011;10902;48.158;8.634;2023-04-25T07:40:16;10.98;;;5.15;;
21480;SDS011;10902;48.158;8.634;2023-04-25T07:42:42;7.85;;;4.97;;
21480;SDS011;10902;48.158;8.634;2023-04-25T07:45:08;9.20;;;4.90;;
21480;SDS011;10902;48.158;8.634;2023-04-25T07:47:34;12.43;;;5.70;;
21480;SDS011;10902;48.158;8.634;2023-04-25T07:50:00;10.60;;;6.00;;
21480;SDS011;10902;48.158;8.634;2023-04-25T07:52:26;10.63;;;5.90;;
21480;SDS011;10902;48.158;8.634;2023-04-25T07:54:51;7.10;;;3.67;;
21480;SDS011;10902;48.158;8.634;2023-04-25T07:57:17;6.43;;;3.55;;
21480;SDS011;10902;48.158;8.634;2023-04-25T07:59:44;4.57;;;2.53;;
21480;SDS011;10902;48.158;8.634;2023-04-25T08:02:10;4.72;;;2.00;;
21480;SDS011;10902;48.158;8.634;2023-04-25T08:04:35;4.45;;;2.28;;
21480;SDS011;10902;48.158;8.634;2023-04-25T08:07:01;5.22;;;2.83;;
21480;SDS011;10902;48.158;8.634;2023-04-25T08:09:26;7.25;;;3.20;;
21480;SDS011;10902;48.158;8.634;2023-04-25T08:11:52;5.00;;;3.30;;
21480;SDS011;10902;48.158;8.634;2023-04-25T08:14:18;6.32;;;3.20;;
21480;SDS011;10902;48.158;8.634;2023-04-25T08:16:43;5.13;;;2.80;;
21480;SDS011;10902;48.158;8.634;2023-04-25T08:19:09;5.00;;;2.72;;
21480;SDS011;10902;48.158;8.634;2023-04-25T08:21:38;6.10;;;2.90;;
21480;SDS011;10902;48.158;8.634;2023-04-25T08:24:04;5.15;;;2.60;;
21480;SDS011;10902;48.158;8.634;2023-04-25T08:26:30;6.55;;;3.38;;
21480;SDS011;10902;48.158;8.634;2023-04-25T08:28:55;4.50;;;2.40;;
21480;SDS011;10902;48.158;8.634;2023-04-25T08:31:21;5.88;;;2.53;;
21480;SDS011;10902;48.158;8.634;2023-04-25T08:33:46;4.72;;;2.80;;
21480;SDS011;10902;48.158;8.634;2023-04-25T08:36:12;5.10;;;2.83;;
21480;SDS011;10902;48.158;8.634;2023-04-25T08:38:38;6.55;;;3.58;;
21480;SDS011;10902;48.158;8.634;2023-04-25T08:41:03;6.03;;;3.20;;
21480;SDS011;10902;48.158;8.634;2023-04-25T08:43:31;5.70;;;2.70;;
21480;SDS011;10902;48.158;8.634;2023-04-25T08:45:58;5.47;;;3.05;;
21480;SDS011;10902;48.158;8.634;2023-04-25T08:48:26;4.38;;;2.38;;
21480;SDS011;10902;48.158;8.634;2023-04-25T08:50:56;4.30;;;2.55;;
21480;SDS011;10902;48.158;8.634;2023-04-25T08:53:27;6.72;;;3.40;;
21480;SDS011;10902;48.158;8.634;2023-04-25T08:55:54;4.90;;;2.17;;
21480;SDS011;10902;48.158;8.634;2023-04-25T08:58:22;3.50;;;1.40;;
21480;SDS011;10902;48.158;8.634;2023-04-25T09:00:49;2.17;;;0.85;;
21480;SDS011;10902;48.158;8.634;2023-04-25T09:03:16;2.70;;;0.85;;
21480;SDS011;10902;48.158;8.634;2023-04-25T09:05:42;2.03;;;0.70;;
21480;SDS011;10902;48.158;8.634;2023-04-25T09:08:08;1.52;;;0.60;;
21480;SDS011;10902;48.158;8.634;2023-04-25T09:10:34;1.52;;;0.45;;
21480;SDS011;10902;48.158;8.634;2023-04-25T09:13:07;1.00;;;0.40;;
21480;SDS011;10902;48.158;8.634;2023-04-25T09:15:46;2.38;;;0.70;;
21480;SDS011;10902;48.158;8.634;2023-04-25T09:18:13;3.17;;;0.80;;
21480;SDS011;10902;48.158;8.634;2023-04-25T09:20:42;2.63;;;0.65;;
21480;SDS011;10902;48.158;8.634;2023-04-25T09:23:08;2.13;;;0.70;;
21480;SDS011;10902;48.158;8.634;2023-04-25T09:25:37;3.60;;;0.73;;
21480;SDS011;10902;48.158;8.634;2023-04-25T09:28:08;1.38;;;0.52;;
21480;SDS011;10902;48.158;8.634;2023-04-25T09:30:34;1.60;;;0.45;;
21480;SDS011;10902;48.158;8.634;2023-04-25T09:33:05;1.83;;;0.50;;
21480;SDS011;10902;48.158;8.634;2023-04-25T09:35:38;1.30;;;0.50;;
21480;SDS011;10902;48.158;8.634;2023-04-25T09:38:18;1.42;;;0.55;;
21480;SDS011;10902;48.158;8.634;2023-04-25T09:40:44;0.90;;;0.30;;
21480;SDS011;10902;48.158;8.634;2023-04-25T09:43:24;2.63;;;0.52;;
21480;SDS011;10902;48.158;8.634;2023-04-25T09:45:50;1.60;;;0.55;;
21480;SDS011;10902;48.158;8.634;2023-04-25T09:48:18;1.80;;;0.73;;
21480;SDS011;10902;48.158;8.634;2023-04-25T09:53:33;0.43;;;0.20;;
21480;SDS011;10902;48.158;8.634;2023-04-25T09:56:06;1.00;;;0.22;;
21480;SDS011;10902;48.158;8.634;2023-04-25T09:58:34;0.50;;;0.20;;
21480;SDS011;10902;48.158;8.634;2023-04-25T10:01:02;1.65;;;0.30;;
21480;SDS011;10902;48.158;8.634;2023-04-25T10:03:30;1.02;;;0.30;;
21480;SDS011;10902;48.158;8.634;2023-04-25T10:05:57;0.50;;;0.20;;
21480;SDS011;10902;48.158;8.634;2023-04-25T10:08:25;0.40;;;0.20;;
21480;SDS011;10902;48.158;8.634;2023-04-25T10:10:58;0.65;;;0.20;;
21480;SDS011;10902;48.158;8.634;2023-04-25T10:13:25;0.35;;;0.10;;
21480;SDS011;10902;48.158;8.634;2023-04-25T10:15:52;0.90;;;0.30;;
21480;SDS011;10902;48.158;8.634;2023-04-25T10:18:19;0.93;;;0.30;;
21480;SDS011;10902;48.158;8.634;2023-04-25T10:20:45;0.73;;;0.20;;
21480;SDS011;10902;48.158;8.634;2023-04-25T10:23:12;0.60;;;0.20;;
21480;SDS011;10902;48.158;8.634;2023-04-25T10:25:40;0.28;;;0.10;;
21480;SDS011;10902;48.158;8.634;2023-04-25T10:28:06;0.82;;;0.30;;
21480;SDS011;10902;48.158;8.634;2023-04-25T10:30:32;0.35;;;0.20;;
21480;SDS011;10902;48.158;8.634;2023-04-25T10:32:58;0.40;;;0.20;;
21480;SDS011;10902;48.158;8.634;2023-04-25T10:35:28;0.30;;;0.20;;
21480;SDS011;10902;48.158;8.634;2023-04-25T10:40:37;0.82;;;0.20;;
21480;SDS011;10902;48.158;8.634;2023-04-25T10:45:56;0.57;;;0.28;;
21480;SDS011;10902;48.158;8.634;2023-04-25T10:48:27;1.02;;;0.30;;
21480;SDS011;10902;48.158;8.634;2023-04-25T10:51:06;2.22;;;0.40;;
21480;SDS011;10902;48.158;8.634;2023-04-25T10:53:59;0.30;;;0.20;;
21480;SDS011;10902;48.158;8.634;2023-04-25T10:59:08;0.60;;;0.20;;
21480;SDS011;10902;48.158;8.634;2023-04-25T11:01:45;0.82;;;0.30;;
21480;SDS011;10902;48.158;8.634;2023-04-25T11:04:31;0.82;;;0.30;;
21480;SDS011;10902;48.158;8.634;2023-04-25T11:09:51;0.45;;;0.20;;
21480;SDS011;10902;48.158;8.634;2023-04-25T11:12:17;0.35;;;0.10;;
21480;SDS011;10902;48.158;8.634;2023-04-25T11:14:43;0.55;;;0.20;;
21480;SDS011;10902;48.158;8.634;2023-04-25T11:17:08;0.40;;;0.20;;
21480;SDS011;10902;48.158;8.634;2023-04-25T11:19:35;1.95;;;0.20;;
21480;SDS011;10902;48.158;8.634;2023-04-25T11:22:01;0.73;;;0.13;;
21480;SDS011;10902;48.158;8.634;2023-04-25T11:26:53;2.40;;;0.40;;
21480;SDS011;10902;48.158;8.634;2023-04-25T11:29:22;1.08;;;0.30;;
21480;SDS011;10902;48.158;8.634;2023-04-25T11:31:48;1.35;;;0.50;;
21480;SDS011;10902;48.158;8.634;2023-04-25T11:34:17;1.48;;;0.50;;
21480;SDS011;10902;48.158;8.634;2023-04-25T11:36:43;1.15;;;0.52;;
21480;SDS011;10902;48.158;8.634;2023-04-25T11:39:10;0.98;;;0.45;;
21480;SDS011;10902;48.158;8.634;2023-04-25T11:41:37;1.40;;;0.50;;
21480;SDS011;10902;48.158;8.634;2023-04-25T11:44:03;1.52;;;0.60;;
21480;SDS011;10902;48.158;8.634;2023-04-25T11:46:29;2.05;;;0.70;;
21480;SDS011;10902;48.158;8.634;2023-04-25T11:48:55;1.90;;;0.60;;
21480;SDS011;10902;48.158;8.634;2023-04-25T11:51:22;2.95;;;1.00;;
21480;SDS011;10902;48.158;8.634;2023-04-25T11:53:47;1.85;;;0.70;;
21480;SDS011;10902;48.158;8.634;2023-04-25T11:56:13;2.28;;;0.85;;
21480;SDS011;10902;48.158;8.634;2023-04-25T11:58:55;1.90;;;0.70;;
21480;SDS011;10902;48.158;8.634;2023-04-25T12:01:29;2.47;;;1.02;;
21480;SDS011;10902;48.158;8.634;2023-04-25T12:03:57;2.88;;;1.00;;
21480;SDS011;10902;48.158;8.634;2023-04-25T12:06:27;3.28;;;1.38;;
21480;SDS011;10902;48.158;8.634;2023-04-25T12:09:03;3.10;;;0.93;;
21480;SDS011;10902;48.158;8.634;2023-04-25T12:11:30;3.53;;;1.30;;
21480;SDS011;10902;48.158;8.634;2023-04-25T12:14:02;2.78;;;1.33;;
21480;SDS011;10902;48.158;8.634;2023-04-25T12:16:28;3.78;;;1.58;;
21480;SDS011;10902;48.158;8.634;2023-04-25T12:18:55;3.97;;;1.60;;
21480;SDS011;10902;48.158;8.634;2023-04-25T12:21:22;4.18;;;1.40;;
21480;SDS011;10902;48.158;8.634;2023-04-25T12:23:47;4.00;;;1.70;;
21480;SDS011;10902;48.158;8.634;2023-04-25T12:26:13;3.58;;;1.60;;
21480;SDS011;10902;48.158;8.634;2023-04-25T12:28:39;2.88;;;1.30;;
21480;SDS011;10902;48.158;8.634;2023-04-25T12:31:05;3.67;;;1.52;;
21480;SDS011;10902;48.158;8.634;2023-04-25T12:33:35;4.00;;;1.55;;
21480;SDS011;10902;48.158;8.634;2023-04-25T12:36:02;3.17;;;1.20;;
21480;SDS011;10902;48.158;8.634;2023-04-25T12:38:35;2.92;;;1.20;;
21480;SDS011;10902;48.158;8.634;2023-04-25T12:41:02;3.58;;;1.48;;
21480;SDS011;10902;48.158;8.634;2023-04-25T12:43:28;2.92;;;1.38;;
21480;SDS011;10902;48.158;8.634;2023-04-25T12:45:54;2.50;;;1.10;;
21480;SDS011;10902;48.158;8.634;2023-04-25T12:48:20;2.72;;;1.13;;
21480;SDS011;10902;48.158;8.634;2023-04-25T12:50:47;5.47;;;1.30;;
21480;SDS011;10902;48.158;8.634;2023-04-25T12:53:14;3.22;;;1.40;;
21480;SDS011;10902;48.158;8.634;2023-04-25T12:55:41;3.15;;;1.20;;
21480;SDS011;10902;48.158;8.634;2023-04-25T12:58:06;2.60;;;1.10;;
21480;SDS011;10902;48.158;8.634;2023-04-25T13:00:32;2.38;;;1.00;;
21480;SDS011;10902;48.158;8.634;2023-04-25T13:02:58;2.33;;;0.93;;
21480;SDS011;10902;48.158;8.634;2023-04-25T13:05:24;2.20;;;1.02;;
21480;SDS011;10902;48.158;8.634;2023-04-25T13:07:50;2.38;;;1.08;;
21480;SDS011;10902;48.158;8.634;2023-04-25T13:10:16;2.45;;;1.00;;
21480;SDS011;10902;48.158;8.634;2023-04-25T13:12:42;2.53;;;1.10;;
21480;SDS011;10902;48.158;8.634;2023-04-25T13:15:08;2.75;;;1.13;;
21480;SDS011;10902;48.158;8.634;2023-04-25T13:17:36;3.90;;;1.20;;
21480;SDS011;10902;48.158;8.634;2023-04-25T13:20:03;3.70;;;1.30;;
21480;SDS011;10902;48.158;8.634;2023-04-25T13:22:33;2.80;;;1.20;;
21480;SDS011;10902;48.158;8.634;2023-04-25T13:25:01;3.38;;;1.30;;
21480;SDS011;10902;48.158;8.634;2023-04-25T13:27:27;2.10;;;0.90;;
21480;SDS011;10902;48.158;8.634;2023-04-25T13:29:53;2.75;;;1.20;;
21480;SDS011;10902;48.158;8.634;2023-04-25T13:32:19;3.08;;;1.30;;
21480;SDS011;10902;48.158;8.634;2023-04-25T13:34:45;3.15;;;1.23;;
21480;SDS011;10902;48.158;8.634;2023-04-25T13:37:10;4.72;;;1.30;;
21480;SDS011;10902;48.158;8.634;2023-04-25T13:39:36;3.05;;;1.23;;
21480;SDS011;10902;48.158;8.634;2023-04-25T13:42:02;2.90;;;1.02;;
21480;SDS011;10902;48.158;8.634;2023-04-25T13:44:28;2.70;;;1.00;;
21480;SDS011;10902;48.158;8.634;2023-04-25T13:46:54;3.13;;;1.40;;
21480;SDS011;10902;48.158;8.634;2023-04-25T13:49:19;3.00;;;1.38;;
21480;SDS011;10902;48.158;8.634;2023-04-25T13:51:45;3.50;;;1.27;;
21480;SDS011;10902;48.158;8.634;2023-04-25T13:54:10;2.47;;;0.95;;
21480;SDS011;10902;48.158;8.634;2023-04-25T13:56:36;2.75;;;0.70;;
21480;SDS011;10902;48.158;8.634;2023-04-25T13:59:02;2.15;;;0.80;;
21480;SDS011;10902;48.158;8.634;2023-04-25T14:01:27;1.73;;;0.60;;
21480;SDS011;10902;48.158;8.634;2023-04-25T14:03:55;1.90;;;0.70;;
21480;SDS011;10902;48.158;8.634;2023-04-25T14:06:20;2.13;;;0.70;;
21480;SDS011;10902;48.158;8.634;2023-04-25T14:08:49;2.22;;;0.73;;
21480;SDS011;10902;48.158;8.634;2023-04-25T14:11:15;2.22;;;0.90;;
21480;SDS011;10902;48.158;8.634;2023-04-25T14:13:42;2.25;;;0.90;;
21480;SDS011;10902;48.158;8.634;2023-04-25T14:16:09;3.33;;;1.00;;
21480;SDS011;10902;48.158;8.634;2023-04-25T14:18:34;2.95;;;0.75;;
21480;SDS011;10902;48.158;8.634;2023-04-25T14:21:00;2.97;;;0.77;;
21480;SDS011;10902;48.158;8.634;2023-04-25T14:23:26;3.85;;;0.88;;
21480;SDS011;10902;48.158;8.634;2023-04-25T14:25:51;2.63;;;0.90;;
21480;SDS011;10902;48.158;8.634;2023-04-25T14:28:17;2.60;;;0.90;;
21480;SDS011;10902;48.158;8.634;2023-04-25T14:30:43;2.90;;;0.82;;
21480;SDS011;10902;48.158;8.634;2023-04-25T14:33:08;2.53;;;0.90;;
21480;SDS011;10902;48.158;8.634;2023-04-25T14:35:34;2.60;;;1.05;;
21480;SDS011;10902;48.158;8.634;2023-04-25T14:38:00;2.33;;;0.90;;
21480;SDS011;10902;48.158;8.634;2023-04-25T14:40:26;2.53;;;0.90;;
21480;SDS011;10902;48.158;8.634;2023-04-25T14:42:51;3.70;;;0.85;;
21480;SDS011;10902;48.158;8.634;2023-04-25T14:45:17;2.35;;;0.80;;
21480;SDS011;10902;48.158;8.634;2023-04-25T14:47:43;2.30;;;0.80;;
21480;SDS011;10902;48.158;8.634;2023-04-25T14:50:08;2.90;;;1.00;;
21480;SDS011;10902;48.158;8.634;2023-04-25T14:52:34;2.95;;;0.90;;
21480;SDS011;10902;48.158;8.634;2023-04-25T14:55:01;3.75;;;1.05;;
21480;SDS011;10902;48.158;8.634;2023-04-25T14:57:30;2.95;;;1.02;;